sensor_id;sensor_type;location;lat;lon;timestamp;P1;durP1;ratioP1;P2;durP2;ratioP2
58338;SDS011;48278;52.704;6.536;2023-01-29T00:02:20;34.17;;;13.48;;
58338;SDS011;48278;52.704;6.536;2023-01-29T00:04:45;29.20;;;12.23;;
58338;SDS011;48278;52.704;6.536;2023-01-29T00:07:11;34.25;;;12.48;;
58338;SDS011;48278;52.704;6.536;2023-01-29T00:09:37;32.20;;;13.18;;
58338;SDS011;48278;52.704;6.536;2023-01-29T00:12:03;33.47;;;13.02;;
58338;SDS011;48278;52.704;6.536;2023-01-29T00:14:28;28.92;;;12.55;;
58338;SDS011;48278;52.704;6.536;2023-01-29T00:16:54;30.80;;;12.52;;
58338;SDS011;48278;52.704;6.536;2023-01-29T00:19:20;30.45;;;12.70;;
58338;SDS011;48278;52.704;6.536;2023-01-29T00:21:46;28.85;;;12.43;;
58338;SDS011;48278;52.704;6.536;2023-01-29T00:24:11;29.35;;;12.60;;
58338;SDS011;48278;52.704;6.536;2023-01-29T00:26:37;31.35;;;12.40;;
58338;SDS011;48278;52.704;6.536;2023-01-29T00:29:04;30.55;;;12.63;;
58338;SDS011;48278;52.704;6.536;2023-01-29T00:31:30;35.10;;;13.48;;
58338;SDS011;48278;52.704;6.536;2023-01-29T00:33:56;33.45;;;12.82;;
58338;SDS011;48278;52.704;6.536;2023-01-29T00:36:22;32.40;;;12.70;;
58338;SDS011;48278;52.704;6.536;2023-01-29T00:38:56;28.60;;;12.35;;
58338;SDS011;48278;52.704;6.536;2023-01-29T00:41:28;30.92;;;12.20;;
58338;SDS011;48278;52.704;6.536;2023-01-29T00:44:14;30.88;;;12.45;;
58338;SDS011;48278;52.704;6.536;2023-01-29T00:47:00;30.23;;;12.52;;
58338;SDS011;48278;52.704;6.536;2023-01-29T00:49:26;29.75;;;12.13;;
58338;SDS011;48278;52.704;6.536;2023-01-29T00:51:52;30.60;;;11.77;;
58338;SDS011;48278;52.704;6.536;2023-01-29T00:54:36;32.00;;;12.25;;
58338;SDS011;48278;52.704;6.536;2023-01-29T00:57:02;28.13;;;12.57;;
58338;SDS011;48278;52.704;6.536;2023-01-29T00:59:28;33.47;;;13.00;;
58338;SDS011;48278;52.704;6.536;2023-01-29T01:01:54;28.60;;;11.85;;
58338;SDS011;48278;52.704;6.536;2023-01-29T01:04:39;26.00;;;8.55;;
58338;SDS011;48278;52.704;6.536;2023-01-29T01:07:05;33.95;;;13.70;;
58338;SDS011;48278;52.704;6.536;2023-01-29T01:09:33;29.48;;;12.65;;
58338;SDS011;48278;52.704;6.536;2023-01-29T01:12:18;30.42;;;13.18;;
58338;SDS011;48278;52.704;6.536;2023-01-29T01:14:44;31.73;;;12.13;;
58338;SDS011;48278;52.704;6.536;2023-01-29T01:17:10;30.35;;;11.98;;
58338;SDS011;48278;52.704;6.536;2023-01-29T01:19:35;28.85;;;12.40;;
58338;SDS011;48278;52.704;6.536;2023-01-29T01:22:01;32.40;;;13.05;;
58338;SDS011;48278;52.704;6.536;2023-01-29T01:24:29;28.40;;;12.68;;
58338;SDS011;48278;52.704;6.536;2023-01-29T01:26:54;30.27;;;12.40;;
58338;SDS011;48278;52.704;6.536;2023-01-29T01:29:20;29.00;;;11.98;;
58338;SDS011;48278;52.704;6.536;2023-01-29T01:31:46;26.05;;;11.82;;
58338;SDS011;48278;52.704;6.536;2023-01-29T01:34:12;31.10;;;12.57;;
58338;SDS011;48278;52.704;6.536;2023-01-29T01:36:37;32.80;;;11.88;;
58338;SDS011;48278;52.704;6.536;2023-01-29T01:39:03;30.00;;;12.50;;
58338;SDS011;48278;52.704;6.536;2023-01-29T01:41:29;30.30;;;12.75;;
58338;SDS011;48278;52.704;6.536;2023-01-29T01:43:56;33.42;;;11.88;;
58338;SDS011;48278;52.704;6.536;2023-01-29T01:46:33;33.88;;;13.20;;
58338;SDS011;48278;52.704;6.536;2023-01-29T01:49:06;29.67;;;13.30;;
58338;SDS011;48278;52.704;6.536;2023-01-29T01:51:38;31.58;;;12.85;;
58338;SDS011;48278;52.704;6.536;2023-01-29T01:54:09;37.35;;;12.80;;
58338;SDS011;48278;52.704;6.536;2023-01-29T01:56:40;31.50;;;12.95;;
58338;SDS011;48278;52.704;6.536;2023-01-29T01:59:12;30.88;;;12.50;;
58338;SDS011;48278;52.704;6.536;2023-01-29T02:01:40;31.10;;;12.68;;
58338;SDS011;48278;52.704;6.536;2023-01-29T02:04:15;32.40;;;13.40;;
58338;SDS011;48278;52.704;6.536;2023-01-29T02:07:02;31.02;;;12.43;;
58338;SDS011;48278;52.704;6.536;2023-01-29T02:10:05;33.53;;;12.52;;
58338;SDS011;48278;52.704;6.536;2023-01-29T02:12:35;32.75;;;12.15;;
58338;SDS011;48278;52.704;6.536;2023-01-29T02:15:02;30.55;;;12.43;;
58338;SDS011;48278;52.704;6.536;2023-01-29T02:17:28;33.28;;;12.57;;
58338;SDS011;48278;52.704;6.536;2023-01-29T02:20:13;28.35;;;11.88;;
58338;SDS011;48278;52.704;6.536;2023-01-29T02:29:09;30.05;;;12.75;;
58338;SDS011;48278;52.704;6.536;2023-01-29T02:31:50;31.48;;;12.98;;
58338;SDS011;48278;52.704;6.536;2023-01-29T02:35:09;29.35;;;12.20;;
58338;SDS011;48278;52.704;6.536;2023-01-29T02:40:55;33.50;;;13.40;;
58338;SDS011;48278;52.704;6.536;2023-01-29T02:43:46;32.28;;;12.63;;
58338;SDS011;48278;52.704;6.536;2023-01-29T02:48:57;31.00;;;13.48;;
58338;SDS011;48278;52.704;6.536;2023-01-29T02:51:43;34.22;;;13.88;;
58338;SDS011;48278;52.704;6.536;2023-01-29T02:54:23;36.90;;;14.20;;
58338;SDS011;48278;52.704;6.536;2023-01-29T02:57:00;34.75;;;14.50;;
58338;SDS011;48278;52.704;6.536;2023-01-29T02:59:40;36.28;;;14.32;;
58338;SDS011;48278;52.704;6.536;2023-01-29T03:02:14;33.28;;;14.10;;
58338;SDS011;48278;52.704;6.536;2023-01-29T03:04:51;33.67;;;13.02;;
58338;SDS011;48278;52.704;6.536;2023-01-29T03:07:24;33.28;;;13.93;;
58338;SDS011;48278;52.704;6.536;2023-01-29T03:10:16;39.25;;;15.40;;
58338;SDS011;48278;52.704;6.536;2023-01-29T03:12:46;34.65;;;14.20;;
58338;SDS011;48278;52.704;6.536;2023-01-29T03:15:21;32.20;;;13.65;;
58338;SDS011;48278;52.704;6.536;2023-01-29T03:17:54;40.50;;;14.13;;
58338;SDS011;48278;52.704;6.536;2023-01-29T03:20:30;35.33;;;14.20;;
58338;SDS011;48278;52.704;6.536;2023-01-29T03:23:04;35.17;;;14.40;;
58338;SDS011;48278;52.704;6.536;2023-01-29T03:25:40;36.53;;;15.20;;
58338;SDS011;48278;52.704;6.536;2023-01-29T03:28:26;36.22;;;15.73;;
58338;SDS011;48278;52.704;6.536;2023-01-29T03:31:12;37.40;;;14.80;;
58338;SDS011;48278;52.704;6.536;2023-01-29T03:34:10;40.08;;;15.02;;
58338;SDS011;48278;52.704;6.536;2023-01-29T03:39:11;42.95;;;15.02;;
58338;SDS011;48278;52.704;6.536;2023-01-29T03:41:52;45.08;;;17.08;;
58338;SDS011;48278;52.704;6.536;2023-01-29T03:47:31;41.30;;;15.82;;
58338;SDS011;48278;52.704;6.536;2023-01-29T03:55:17;44.97;;;15.68;;
58338;SDS011;48278;52.704;6.536;2023-01-29T04:01:00;43.10;;;16.40;;
58338;SDS011;48278;52.704;6.536;2023-01-29T04:06:32;45.10;;;15.80;;
58338;SDS011;48278;52.704;6.536;2023-01-29T04:11:41;42.70;;;15.45;;
58338;SDS011;48278;52.704;6.536;2023-01-29T04:14:11;43.70;;;17.02;;
58338;SDS011;48278;52.704;6.536;2023-01-29T04:16:39;42.03;;;17.63;;
58338;SDS011;48278;52.704;6.536;2023-01-29T04:19:09;41.67;;;17.42;;
58338;SDS011;48278;52.704;6.536;2023-01-29T04:21:36;46.63;;;17.50;;
58338;SDS011;48278;52.704;6.536;2023-01-29T04:24:03;42.65;;;16.85;;
58338;SDS011;48278;52.704;6.536;2023-01-29T04:26:32;42.30;;;16.85;;
58338;SDS011;48278;52.704;6.536;2023-01-29T04:40:50;49.63;;;19.45;;
58338;SDS011;48278;52.704;6.536;2023-01-29T04:43:29;48.00;;;19.73;;
58338;SDS011;48278;52.704;6.536;2023-01-29T04:46:07;49.25;;;18.95;;
58338;SDS011;48278;52.704;6.536;2023-01-29T04:59:32;47.90;;;19.35;;
58338;SDS011;48278;52.704;6.536;2023-01-29T05:02:04;46.63;;;19.33;;
58338;SDS011;48278;52.704;6.536;2023-01-29T05:04:33;50.08;;;19.63;;
58338;SDS011;48278;52.704;6.536;2023-01-29T05:07:03;52.90;;;20.98;;
58338;SDS011;48278;52.704;6.536;2023-01-29T05:09:33;51.20;;;20.73;;
58338;SDS011;48278;52.704;6.536;2023-01-29T05:12:00;55.13;;;21.38;;
58338;SDS011;48278;52.704;6.536;2023-01-29T05:14:27;55.00;;;21.38;;
58338;SDS011;48278;52.704;6.536;2023-01-29T05:16:57;50.10;;;21.20;;
58338;SDS011;48278;52.704;6.536;2023-01-29T05:19:27;58.67;;;22.67;;
58338;SDS011;48278;52.704;6.536;2023-01-29T05:21:53;52.08;;;21.45;;
58338;SDS011;48278;52.704;6.536;2023-01-29T05:24:23;55.25;;;20.95;;
58338;SDS011;48278;52.704;6.536;2023-01-29T05:26:50;55.03;;;22.42;;
58338;SDS011;48278;52.704;6.536;2023-01-29T05:29:36;56.22;;;22.55;;
58338;SDS011;48278;52.704;6.536;2023-01-29T05:32:02;57.58;;;22.40;;
58338;SDS011;48278;52.704;6.536;2023-01-29T05:34:28;57.03;;;22.70;;
58338;SDS011;48278;52.704;6.536;2023-01-29T05:36:54;51.97;;;21.90;;
58338;SDS011;48278;52.704;6.536;2023-01-29T05:39:20;52.92;;;21.08;;
58338;SDS011;48278;52.704;6.536;2023-01-29T05:41:45;56.55;;;22.27;;
58338;SDS011;48278;52.704;6.536;2023-01-29T05:44:12;57.65;;;20.55;;
58338;SDS011;48278;52.704;6.536;2023-01-29T05:46:38;53.95;;;22.60;;
58338;SDS011;48278;52.704;6.536;2023-01-29T05:49:04;52.55;;;22.02;;
58338;SDS011;48278;52.704;6.536;2023-01-29T05:51:30;57.47;;;22.23;;
58338;SDS011;48278;52.704;6.536;2023-01-29T05:53:56;56.20;;;22.33;;
58338;SDS011;48278;52.704;6.536;2023-01-29T05:56:21;56.60;;;22.52;;
58338;SDS011;48278;52.704;6.536;2023-01-29T05:58:47;57.47;;;23.23;;
58338;SDS011;48278;52.704;6.536;2023-01-29T06:03:43;57.03;;;24.73;;
58338;SDS011;48278;52.704;6.536;2023-01-29T06:06:09;54.25;;;22.88;;
58338;SDS011;48278;52.704;6.536;2023-01-29T06:08:34;53.90;;;21.48;;
58338;SDS011;48278;52.704;6.536;2023-01-29T06:11:01;57.03;;;24.23;;
58338;SDS011;48278;52.704;6.536;2023-01-29T06:13:27;59.45;;;23.75;;
58338;SDS011;48278;52.704;6.536;2023-01-29T06:15:52;61.92;;;23.75;;
58338;SDS011;48278;52.704;6.536;2023-01-29T06:18:18;59.10;;;23.75;;
58338;SDS011;48278;52.704;6.536;2023-01-29T06:20:44;59.10;;;23.75;;
58338;SDS011;48278;52.704;6.536;2023-01-29T06:23:09;60.10;;;23.23;;
58338;SDS011;48278;52.704;6.536;2023-01-29T06:25:35;57.08;;;23.23;;
58338;SDS011;48278;52.704;6.536;2023-01-29T06:28:01;62.05;;;25.33;;
58338;SDS011;48278;52.704;6.536;2023-01-29T06:30:27;60.70;;;24.15;;
58338;SDS011;48278;52.704;6.536;2023-01-29T06:32:59;58.50;;;23.75;;
58338;SDS011;48278;52.704;6.536;2023-01-29T06:35:27;59.65;;;23.95;;
58338;SDS011;48278;52.704;6.536;2023-01-29T06:37:53;59.65;;;24.20;;
58338;SDS011;48278;52.704;6.536;2023-01-29T06:40:20;56.17;;;23.48;;
58338;SDS011;48278;52.704;6.536;2023-01-29T06:42:46;63.17;;;24.67;;
58338;SDS011;48278;52.704;6.536;2023-01-29T06:45:11;63.50;;;25.52;;
58338;SDS011;48278;52.704;6.536;2023-01-29T06:47:37;64.00;;;25.23;;
58338;SDS011;48278;52.704;6.536;2023-01-29T06:50:03;66.47;;;25.25;;
58338;SDS011;48278;52.704;6.536;2023-01-29T06:52:29;61.45;;;24.75;;
58338;SDS011;48278;52.704;6.536;2023-01-29T06:54:55;60.70;;;25.17;;
58338;SDS011;48278;52.704;6.536;2023-01-29T06:57:21;68.30;;;25.67;;
58338;SDS011;48278;52.704;6.536;2023-01-29T06:59:47;61.13;;;25.35;;
58338;SDS011;48278;52.704;6.536;2023-01-29T07:02:12;53.65;;;23.27;;
58338;SDS011;48278;52.704;6.536;2023-01-29T07:04:39;65.85;;;26.88;;
58338;SDS011;48278;52.704;6.536;2023-01-29T07:07:06;61.42;;;25.08;;
58338;SDS011;48278;52.704;6.536;2023-01-29T07:09:38;59.25;;;23.92;;
58338;SDS011;48278;52.704;6.536;2023-01-29T07:12:05;62.80;;;23.80;;
58338;SDS011;48278;52.704;6.536;2023-01-29T07:14:31;65.65;;;25.02;;
58338;SDS011;48278;52.704;6.536;2023-01-29T07:16:56;64.38;;;25.70;;
58338;SDS011;48278;52.704;6.536;2023-01-29T07:19:22;58.58;;;23.50;;
58338;SDS011;48278;52.704;6.536;2023-01-29T07:21:48;61.10;;;23.27;;
58338;SDS011;48278;52.704;6.536;2023-01-29T07:24:14;64.03;;;25.35;;
58338;SDS011;48278;52.704;6.536;2023-01-29T07:26:40;58.17;;;23.85;;
58338;SDS011;48278;52.704;6.536;2023-01-29T07:29:06;64.10;;;25.45;;
58338;SDS011;48278;52.704;6.536;2023-01-29T07:31:32;63.92;;;24.75;;
58338;SDS011;48278;52.704;6.536;2023-01-29T07:33:57;64.38;;;24.65;;
58338;SDS011;48278;52.704;6.536;2023-01-29T07:36:23;61.40;;;23.95;;
58338;SDS011;48278;52.704;6.536;2023-01-29T07:38:49;65.13;;;24.85;;
58338;SDS011;48278;52.704;6.536;2023-01-29T07:41:15;62.72;;;25.58;;
58338;SDS011;48278;52.704;6.536;2023-01-29T07:43:41;66.22;;;24.15;;
58338;SDS011;48278;52.704;6.536;2023-01-29T07:46:07;58.60;;;24.35;;
58338;SDS011;48278;52.704;6.536;2023-01-29T07:48:32;69.35;;;25.75;;
58338;SDS011;48278;52.704;6.536;2023-01-29T07:50:58;61.03;;;25.17;;
58338;SDS011;48278;52.704;6.536;2023-01-29T07:53:24;63.13;;;24.58;;
58338;SDS011;48278;52.704;6.536;2023-01-29T07:55:51;63.97;;;24.13;;
58338;SDS011;48278;52.704;6.536;2023-01-29T07:58:17;66.38;;;24.17;;
58338;SDS011;48278;52.704;6.536;2023-01-29T08:00:43;64.72;;;25.65;;
58338;SDS011;48278;52.704;6.536;2023-01-29T08:03:10;62.57;;;23.97;;
58338;SDS011;48278;52.704;6.536;2023-01-29T08:05:41;66.15;;;25.77;;
58338;SDS011;48278;52.704;6.536;2023-01-29T08:08:09;63.58;;;24.35;;
58338;SDS011;48278;52.704;6.536;2023-01-29T08:10:35;73.63;;;25.48;;
58338;SDS011;48278;52.704;6.536;2023-01-29T08:13:02;61.53;;;23.10;;
58338;SDS011;48278;52.704;6.536;2023-01-29T08:15:29;66.13;;;24.60;;
58338;SDS011;48278;52.704;6.536;2023-01-29T08:17:55;67.85;;;25.40;;
58338;SDS011;48278;52.704;6.536;2023-01-29T08:20:21;70.05;;;25.75;;
58338;SDS011;48278;52.704;6.536;2023-01-29T08:22:47;67.97;;;24.80;;
58338;SDS011;48278;52.704;6.536;2023-01-29T08:25:13;57.55;;;22.35;;
58338;SDS011;48278;52.704;6.536;2023-01-29T08:27:40;66.63;;;24.08;;
58338;SDS011;48278;52.704;6.536;2023-01-29T08:30:07;69.82;;;28.08;;
58338;SDS011;48278;52.704;6.536;2023-01-29T08:32:34;63.42;;;25.48;;
58338;SDS011;48278;52.704;6.536;2023-01-29T08:34:59;64.53;;;23.98;;
58338;SDS011;48278;52.704;6.536;2023-01-29T08:37:25;61.78;;;24.10;;
58338;SDS011;48278;52.704;6.536;2023-01-29T08:39:51;65.68;;;24.38;;
58338;SDS011;48278;52.704;6.536;2023-01-29T08:42:17;65.07;;;23.92;;
58338;SDS011;48278;52.704;6.536;2023-01-29T08:44:43;67.63;;;26.23;;
58338;SDS011;48278;52.704;6.536;2023-01-29T08:47:08;66.68;;;24.45;;
58338;SDS011;48278;52.704;6.536;2023-01-29T08:49:34;66.50;;;24.63;;
58338;SDS011;48278;52.704;6.536;2023-01-29T08:52:00;68.15;;;26.40;;
58338;SDS011;48278;52.704;6.536;2023-01-29T08:54:25;62.63;;;24.92;;
58338;SDS011;48278;52.704;6.536;2023-01-29T08:56:51;45.10;;;14.82;;
58338;SDS011;48278;52.704;6.536;2023-01-29T08:59:17;65.22;;;25.05;;
58338;SDS011;48278;52.704;6.536;2023-01-29T09:01:43;67.93;;;25.90;;
58338;SDS011;48278;52.704;6.536;2023-01-29T09:04:08;65.47;;;26.00;;
58338;SDS011;48278;52.704;6.536;2023-01-29T09:06:34;63.13;;;25.58;;
58338;SDS011;48278;52.704;6.536;2023-01-29T09:09:00;72.25;;;25.10;;
58338;SDS011;48278;52.704;6.536;2023-01-29T09:11:26;62.25;;;23.85;;
58338;SDS011;48278;52.704;6.536;2023-01-29T09:13:51;68.35;;;25.35;;
58338;SDS011;48278;52.704;6.536;2023-01-29T09:16:17;68.47;;;25.13;;
58338;SDS011;48278;52.704;6.536;2023-01-29T09:18:43;65.35;;;24.80;;
58338;SDS011;48278;52.704;6.536;2023-01-29T09:21:09;58.10;;;24.05;;
58338;SDS011;48278;52.704;6.536;2023-01-29T09:23:34;64.55;;;24.52;;
58338;SDS011;48278;52.704;6.536;2023-01-29T09:26:01;61.40;;;23.55;;
58338;SDS011;48278;52.704;6.536;2023-01-29T09:28:27;55.57;;;23.10;;
58338;SDS011;48278;52.704;6.536;2023-01-29T09:30:52;61.63;;;25.05;;
58338;SDS011;48278;52.704;6.536;2023-01-29T09:33:18;66.57;;;26.98;;
58338;SDS011;48278;52.704;6.536;2023-01-29T09:35:44;62.75;;;25.23;;
58338;SDS011;48278;52.704;6.536;2023-01-29T09:38:11;66.93;;;28.50;;
58338;SDS011;48278;52.704;6.536;2023-01-29T09:40:40;70.10;;;27.05;;
58338;SDS011;48278;52.704;6.536;2023-01-29T09:43:34;67.45;;;26.05;;
58338;SDS011;48278;52.704;6.536;2023-01-29T09:46:04;59.30;;;24.45;;
58338;SDS011;48278;52.704;6.536;2023-01-29T09:48:39;66.72;;;24.50;;
58338;SDS011;48278;52.704;6.536;2023-01-29T09:51:07;65.28;;;24.88;;
58338;SDS011;48278;52.704;6.536;2023-01-29T09:56:35;63.00;;;25.58;;
58338;SDS011;48278;52.704;6.536;2023-01-29T09:59:01;67.18;;;25.23;;
58338;SDS011;48278;52.704;6.536;2023-01-29T10:01:43;64.15;;;25.65;;
58338;SDS011;48278;52.704;6.536;2023-01-29T10:04:28;57.50;;;22.65;;
58338;SDS011;48278;52.704;6.536;2023-01-29T10:15:34;67.95;;;27.20;;
58338;SDS011;48278;52.704;6.536;2023-01-29T10:23:32;66.88;;;24.33;;
58338;SDS011;48278;52.704;6.536;2023-01-29T10:26:02;70.43;;;27.65;;
58338;SDS011;48278;52.704;6.536;2023-01-29T10:28:30;62.67;;;25.15;;
58338;SDS011;48278;52.704;6.536;2023-01-29T10:31:28;66.90;;;26.48;;
58338;SDS011;48278;52.704;6.536;2023-01-29T10:34:11;66.00;;;25.45;;
58338;SDS011;48278;52.704;6.536;2023-01-29T10:36:42;65.90;;;26.85;;
58338;SDS011;48278;52.704;6.536;2023-01-29T10:39:21;74.20;;;28.45;;
58338;SDS011;48278;52.704;6.536;2023-01-29T10:41:55;70.38;;;26.52;;
58338;SDS011;48278;52.704;6.536;2023-01-29T10:44:32;69.03;;;29.00;;
58338;SDS011;48278;52.704;6.536;2023-01-29T10:47:06;71.78;;;27.98;;
58338;SDS011;48278;52.704;6.536;2023-01-29T10:57:41;70.82;;;27.17;;
58338;SDS011;48278;52.704;6.536;2023-01-29T11:03:17;71.07;;;26.70;;
58338;SDS011;48278;52.704;6.536;2023-01-29T11:13:42;68.10;;;26.20;;
58338;SDS011;48278;52.704;6.536;2023-01-29T11:16:18;64.95;;;25.85;;
58338;SDS011;48278;52.704;6.536;2023-01-29T11:18:48;63.80;;;23.67;;
58338;SDS011;48278;52.704;6.536;2023-01-29T11:21:16;70.00;;;25.33;;
58338;SDS011;48278;52.704;6.536;2023-01-29T11:23:41;65.07;;;25.40;;
58338;SDS011;48278;52.704;6.536;2023-01-29T11:26:07;60.83;;;22.67;;
58338;SDS011;48278;52.704;6.536;2023-01-29T11:34:00;71.60;;;27.08;;
58338;SDS011;48278;52.704;6.536;2023-01-29T11:36:38;69.93;;;25.38;;
58338;SDS011;48278;52.704;6.536;2023-01-29T11:41:43;68.20;;;26.20;;
58338;SDS011;48278;52.704;6.536;2023-01-29T11:44:16;64.95;;;25.08;;
58338;SDS011;48278;52.704;6.536;2023-01-29T11:46:51;72.05;;;25.75;;
58338;SDS011;48278;52.704;6.536;2023-01-29T11:49:20;72.10;;;26.58;;
58338;SDS011;48278;52.704;6.536;2023-01-29T11:51:55;70.22;;;25.95;;
58338;SDS011;48278;52.704;6.536;2023-01-29T11:54:24;71.13;;;25.95;;
58338;SDS011;48278;52.704;6.536;2023-01-29T11:56:55;69.15;;;25.80;;
58338;SDS011;48278;52.704;6.536;2023-01-29T12:01:48;71.55;;;25.60;;
58338;SDS011;48278;52.704;6.536;2023-01-29T12:06:44;71.75;;;27.00;;
58338;SDS011;48278;52.704;6.536;2023-01-29T12:09:15;75.25;;;28.52;;
58338;SDS011;48278;52.704;6.536;2023-01-29T12:11:43;69.50;;;25.65;;
58338;SDS011;48278;52.704;6.536;2023-01-29T12:19:53;70.03;;;24.30;;
58338;SDS011;48278;52.704;6.536;2023-01-29T12:22:27;71.10;;;25.60;;
58338;SDS011;48278;52.704;6.536;2023-01-29T12:25:33;67.00;;;25.20;;
58338;SDS011;48278;52.704;6.536;2023-01-29T12:39:46;74.90;;;26.67;;
58338;SDS011;48278;52.704;6.536;2023-01-29T12:45:00;73.03;;;26.75;;
58338;SDS011;48278;52.704;6.536;2023-01-29T12:47:44;73.60;;;26.30;;
58338;SDS011;48278;52.704;6.536;2023-01-29T12:50:14;74.57;;;25.05;;
58338;SDS011;48278;52.704;6.536;2023-01-29T12:52:46;68.30;;;25.25;;
58338;SDS011;48278;52.704;6.536;2023-01-29T12:55:21;69.82;;;26.50;;
58338;SDS011;48278;52.704;6.536;2023-01-29T13:00:26;70.95;;;24.17;;
58338;SDS011;48278;52.704;6.536;2023-01-29T13:02:58;68.60;;;23.77;;
58338;SDS011;48278;52.704;6.536;2023-01-29T13:11:13;74.78;;;26.40;;
58338;SDS011;48278;52.704;6.536;2023-01-29T13:16:21;75.78;;;26.80;;
58338;SDS011;48278;52.704;6.536;2023-01-29T13:21:36;79.03;;;28.33;;
58338;SDS011;48278;52.704;6.536;2023-01-29T13:24:14;70.75;;;26.35;;
58338;SDS011;48278;52.704;6.536;2023-01-29T13:26:43;77.07;;;26.95;;
58338;SDS011;48278;52.704;6.536;2023-01-29T13:29:43;75.32;;;26.45;;
58338;SDS011;48278;52.704;6.536;2023-01-29T13:32:02;85.18;;;28.98;;
58338;SDS011;48278;52.704;6.536;2023-01-29T13:40:00;77.45;;;28.88;;
58338;SDS011;48278;52.704;6.536;2023-01-29T13:45:06;87.68;;;29.92;;
58338;SDS011;48278;52.704;6.536;2023-01-29T14:02:45;87.55;;;31.55;;
58338;SDS011;48278;52.704;6.536;2023-01-29T14:10:24;88.55;;;30.63;;
58338;SDS011;48278;52.704;6.536;2023-01-29T14:13:36;87.93;;;29.33;;
58338;SDS011;48278;52.704;6.536;2023-01-29T14:18:29;92.80;;;30.60;;
58338;SDS011;48278;52.704;6.536;2023-01-29T14:23:53;88.60;;;31.20;;
58338;SDS011;48278;52.704;6.536;2023-01-29T14:26:30;97.60;;;34.97;;
58338;SDS011;48278;52.704;6.536;2023-01-29T14:29:06;92.55;;;30.98;;
58338;SDS011;48278;52.704;6.536;2023-01-29T14:31:49;90.97;;;31.30;;
58338;SDS011;48278;52.704;6.536;2023-01-29T14:36:48;100.22;;;32.85;;
58338;SDS011;48278;52.704;6.536;2023-01-29T14:45:23;92.68;;;29.63;;
58338;SDS011;48278;52.704;6.536;2023-01-29T14:47:57;99.55;;;32.60;;
58338;SDS011;48278;52.704;6.536;2023-01-29T14:53:05;106.35;;;34.67;;
58338;SDS011;48278;52.704;6.536;2023-01-29T14:55:38;101.15;;;32.97;;
58338;SDS011;48278;52.704;6.536;2023-01-29T14:58:18;104.38;;;34.13;;
58338;SDS011;48278;52.704;6.536;2023-01-29T15:01:00;114.50;;;43.05;;
58338;SDS011;48278;52.704;6.536;2023-01-29T15:03:48;114.28;;;39.05;;
58338;SDS011;48278;52.704;6.536;2023-01-29T15:06:45;108.40;;;34.92;;
58338;SDS011;48278;52.704;6.536;2023-01-29T15:12:27;100.00;;;32.53;;
58338;SDS011;48278;52.704;6.536;2023-01-29T15:15:14;93.05;;;33.10;;
58338;SDS011;48278;52.704;6.536;2023-01-29T15:20:32;113.13;;;34.53;;
58338;SDS011;48278;52.704;6.536;2023-01-29T15:23:00;114.63;;;35.72;;
58338;SDS011;48278;52.704;6.536;2023-01-29T15:25:33;111.50;;;34.55;;
58338;SDS011;48278;52.704;6.536;2023-01-29T15:28:01;116.25;;;34.92;;
58338;SDS011;48278;52.704;6.536;2023-01-29T15:30:33;119.10;;;36.97;;
58338;SDS011;48278;52.704;6.536;2023-01-29T15:38:36;114.45;;;33.83;;
58338;SDS011;48278;52.704;6.536;2023-01-29T15:40:54;113.85;;;35.40;;
58338;SDS011;48278;52.704;6.536;2023-01-29T15:43:24;115.53;;;36.95;;
58338;SDS011;48278;52.704;6.536;2023-01-29T15:45:56;108.60;;;32.70;;
58338;SDS011;48278;52.704;6.536;2023-01-29T15:48:31;121.05;;;36.70;;
58338;SDS011;48278;52.704;6.536;2023-01-29T15:51:00;110.88;;;35.22;;
58338;SDS011;48278;52.704;6.536;2023-01-29T15:53:32;114.82;;;35.40;;
58338;SDS011;48278;52.704;6.536;2023-01-29T15:56:01;96.47;;;30.27;;
58338;SDS011;48278;52.704;6.536;2023-01-29T15:58:36;114.45;;;35.20;;
58338;SDS011;48278;52.704;6.536;2023-01-29T16:01:03;112.25;;;34.83;;
58338;SDS011;48278;52.704;6.536;2023-01-29T16:03:30;111.57;;;34.65;;
58338;SDS011;48278;52.704;6.536;2023-01-29T16:05:58;103.57;;;32.78;;
58338;SDS011;48278;52.704;6.536;2023-01-29T16:10:55;113.93;;;35.17;;
58338;SDS011;48278;52.704;6.536;2023-01-29T16:13:29;109.82;;;34.72;;
58338;SDS011;48278;52.704;6.536;2023-01-29T16:18:29;112.68;;;34.15;;
58338;SDS011;48278;52.704;6.536;2023-01-29T16:21:03;118.25;;;33.55;;
58338;SDS011;48278;52.704;6.536;2023-01-29T16:23:43;112.05;;;35.88;;
58338;SDS011;48278;52.704;6.536;2023-01-29T16:26:16;120.32;;;37.05;;
58338;SDS011;48278;52.704;6.536;2023-01-29T16:28:48;104.33;;;31.63;;
58338;SDS011;48278;52.704;6.536;2023-01-29T16:31:21;117.40;;;33.47;;
58338;SDS011;48278;52.704;6.536;2023-01-29T16:33:51;125.50;;;43.50;;
58338;SDS011;48278;52.704;6.536;2023-01-29T16:36:21;108.25;;;34.40;;
58338;SDS011;48278;52.704;6.536;2023-01-29T16:38:50;117.53;;;33.40;;
58338;SDS011;48278;52.704;6.536;2023-01-29T16:41:33;116.50;;;37.53;;
58338;SDS011;48278;52.704;6.536;2023-01-29T16:44:02;95.65;;;28.35;;
58338;SDS011;48278;52.704;6.536;2023-01-29T16:46:44;104.40;;;34.00;;
58338;SDS011;48278;52.704;6.536;2023-01-29T16:51:54;104.82;;;33.33;;
58338;SDS011;48278;52.704;6.536;2023-01-29T16:54:23;105.45;;;32.17;;
58338;SDS011;48278;52.704;6.536;2023-01-29T16:56:52;105.60;;;33.83;;
58338;SDS011;48278;52.704;6.536;2023-01-29T16:59:28;119.60;;;35.38;;
58338;SDS011;48278;52.704;6.536;2023-01-29T17:01:57;109.50;;;32.63;;
58338;SDS011;48278;52.704;6.536;2023-01-29T17:04:23;115.43;;;32.53;;
58338;SDS011;48278;52.704;6.536;2023-01-29T17:06:53;106.57;;;32.50;;
58338;SDS011;48278;52.704;6.536;2023-01-29T17:09:28;115.85;;;39.47;;
58338;SDS011;48278;52.704;6.536;2023-01-29T17:12:05;101.55;;;31.63;;
58338;SDS011;48278;52.704;6.536;2023-01-29T17:14:32;112.85;;;37.10;;
58338;SDS011;48278;52.704;6.536;2023-01-29T17:19:28;111.13;;;35.72;;
58338;SDS011;48278;52.704;6.536;2023-01-29T17:21:55;115.30;;;32.70;;
58338;SDS011;48278;52.704;6.536;2023-01-29T17:24:22;117.18;;;37.17;;
58338;SDS011;48278;52.704;6.536;2023-01-29T17:26:48;114.35;;;33.35;;
58338;SDS011;48278;52.704;6.536;2023-01-29T17:29:16;120.67;;;38.53;;
58338;SDS011;48278;52.704;6.536;2023-01-29T17:31:44;97.97;;;32.03;;
58338;SDS011;48278;52.704;6.536;2023-01-29T17:34:11;111.63;;;36.00;;
58338;SDS011;48278;52.704;6.536;2023-01-29T17:36:39;110.28;;;34.22;;
58338;SDS011;48278;52.704;6.536;2023-01-29T17:39:19;111.65;;;34.30;;
58338;SDS011;48278;52.704;6.536;2023-01-29T17:41:48;106.18;;;31.88;;
58338;SDS011;48278;52.704;6.536;2023-01-29T17:44:19;124.95;;;35.83;;
58338;SDS011;48278;52.704;6.536;2023-01-29T17:46:45;125.05;;;37.85;;
58338;SDS011;48278;52.704;6.536;2023-01-29T17:49:18;81.28;;;23.98;;
58338;SDS011;48278;52.704;6.536;2023-01-29T17:51:54;115.47;;;35.90;;
58338;SDS011;48278;52.704;6.536;2023-01-29T17:56:48;124.35;;;35.33;;
58338;SDS011;48278;52.704;6.536;2023-01-29T17:59:15;111.80;;;33.15;;
58338;SDS011;48278;52.704;6.536;2023-01-29T18:01:42;115.43;;;37.80;;
58338;SDS011;48278;52.704;6.536;2023-01-29T18:04:09;120.10;;;36.83;;
58338;SDS011;48278;52.704;6.536;2023-01-29T18:06:35;117.70;;;33.65;;
58338;SDS011;48278;52.704;6.536;2023-01-29T18:09:02;116.20;;;36.50;;